This is the latest recevied weather packets stored in our database for station/object KF0FSA. If no packets are shown the sender has not sent any weather packets the latest 10 day(s).
| Time | Temp. | Humidity | Pressure | Rain* | Wind** | Luminosity | Snow |
|---|---|---|---|---|---|---|---|
| 1777411169 | 11.67° C | 53% | 963.5 hPa | 0 mm | - | 343 W/m² | - |
| 1777410869 | 11.67° C | 52% | 963.7 hPa | 0 mm | - | 251 W/m² | - |
| 1777410567 | 11.11° C | 53% | 963.7 hPa | 0 mm | - | 268 W/m² | - |
| 1777410266 | 11.11° C | 54% | 963.6 hPa | 0 mm | - | 260 W/m² | - |
| 1777410090 | 11.11° C | 53% | 963.7 hPa | 0 mm | - | 219 W/m² | - |
| 1777409367 | 11.11° C | 52% | 963.9 hPa | 0 mm | - | 151 W/m² | - |
| 1777409068 | 11.67° C | 52% | 964 hPa | 0 mm | - | 150 W/m² | - |
| 1777408167 | 11.67° C | 51% | 964 hPa | 0 mm | - | 289 W/m² | - |
| 1777407873 | 11.67° C | 52% | 964 hPa | 0 mm | - | 288 W/m² | - |
| 1777407574 | 11.67° C | 50% | 964.1 hPa | 0 mm | - | 273 W/m² | - |
| 1777407267 | 11.67° C | 52% | 964.1 hPa | 0 mm | - | 308 W/m² | - |
| 1777406674 | 12.22° C | 50% | 964.1 hPa | 0 mm | - | 341 W/m² | - |
| 1777406364 | 12.22° C | 50% | 964 hPa | 0 mm | - | 414 W/m² | - |
| 1777406061 | 12.22° C | 50% | 964 hPa | 0 mm | - | 450 W/m² | - |
| 1777405461 | 11.67° C | 51% | 963.8 hPa | 0 mm | - | 526 W/m² | - |
| 1777405159 | 11.67° C | 51% | 963.9 hPa | 0 mm | - | 351 W/m² | - |
| 1777404858 | 11.67° C | 50% | 963.9 hPa | 0 mm | - | 415 W/m² | - |
| 1777404558 | 11.67° C | 49% | 963.8 hPa | 0 mm | - | 456 W/m² | - |
| 1777404383 | 11.67° C | 49% | 963.9 hPa | 0 mm | - | 512 W/m² | - |
| 1777403958 | 11.67° C | 50% | 963.8 hPa | 0 mm | - | 558 W/m² | - |
| 1777403659 | 11.67° C | 49% | 963.8 hPa | 0 mm | - | 471 W/m² | - |
| 1777403359 | 11.67° C | 50% | 963.9 hPa | 0 mm | - | 525 W/m² | - |
| 1777403060 | 11.67° C | 50% | 963.9 hPa | 0 mm | - | 434 W/m² | - |
| 1777402759 | 11.67° C | 49% | 964 hPa | 0 mm | - | 376 W/m² | - |
| 1777402459 | 11.67° C | 50% | 964 hPa | 0 mm | - | 401 W/m² | - |
* Rain latest hour (hover to see other rain measurements)
** Current wind speed in m/s (hover to see current wind gust speed)